createdAt,value
2017-06-21T00:02:10.147Z,22.50
2017-06-21T00:04:39.183Z,22.40
2017-06-21T00:07:07.492Z,22.30
2017-06-21T00:09:35.856Z,22.30
2017-06-21T00:12:04.144Z,22.20
2017-06-21T00:14:33.587Z,22.20
2017-06-21T00:17:01.952Z,22.10
2017-06-21T00:19:30.234Z,22.10
2017-06-21T00:21:58.513Z,22.10
2017-06-21T00:24:26.855Z,22.10
2017-06-21T00:26:55.126Z,22.00
2017-06-21T00:29:24.538Z,22.00
2017-06-21T00:31:53.651Z,21.90
2017-06-21T00:34:23.090Z,21.80
2017-06-21T00:36:51.787Z,21.80
2017-06-21T00:39:20.911Z,21.80
2017-06-21T00:41:49.950Z,21.80
2017-06-21T00:44:18.994Z,21.80
2017-06-21T00:51:47.097Z,21.60
2017-06-21T00:54:15.420Z,21.60
2017-06-21T00:56:43.694Z,21.60
2017-06-21T00:59:11.974Z,21.60
2017-06-21T01:01:41.811Z,21.50
2017-06-21T01:04:10.092Z,21.50
2017-06-21T01:06:38.381Z,21.40
2017-06-21T01:09:07.869Z,21.50
2017-06-21T01:11:36.575Z,21.50
2017-06-21T01:14:04.894Z,21.50
2017-06-21T01:16:33.245Z,21.40
2017-06-21T01:19:01.556Z,21.40
2017-06-21T01:21:30.595Z,21.40
2017-06-21T01:23:58.919Z,21.40
2017-06-21T01:28:56.698Z,21.20
2017-06-21T01:31:25.076Z,21.20
2017-06-21T01:33:53.393Z,21.10
2017-06-21T01:36:21.691Z,21.00
2017-06-21T01:38:51.005Z,21.00
2017-06-21T01:41:20.047Z,21.00
2017-06-21T01:43:48.323Z,21.10
2017-06-21T01:46:17.646Z,21.00
2017-06-21T01:48:45.922Z,21.00
2017-06-21T01:51:14.203Z,21.00
2017-06-21T01:53:42.555Z,20.90
2017-06-21T01:56:10.835Z,20.90
2017-06-21T01:58:39.111Z,20.90
2017-06-21T02:03:38.559Z,20.80
2017-06-21T02:06:06.846Z,20.80
2017-06-21T02:08:35.182Z,20.70
2017-06-21T02:11:04.991Z,20.70
2017-06-21T02:13:33.324Z,20.70
2017-06-21T02:16:01.648Z,20.60
2017-06-21T02:18:29.922Z,20.60
2017-06-21T02:20:59.337Z,20.60
2017-06-21T02:23:27.654Z,20.60
2017-06-21T02:25:55.928Z,20.60
2017-06-21T02:28:24.198Z,20.60
2017-06-21T02:30:54.430Z,20.60
2017-06-21T02:33:22.718Z,20.60
2017-06-21T02:35:51.020Z,20.50
2017-06-21T02:38:20.857Z,20.50
2017-06-21T02:40:49.132Z,20.50
2017-06-21T02:43:18.182Z,20.50
2017-06-21T02:45:47.634Z,20.40
2017-06-21T02:50:46.555Z,20.30
2017-06-21T02:53:14.879Z,20.20
2017-06-21T02:55:43.155Z,20.20
2017-06-21T02:58:12.938Z,20.20
2017-06-21T03:00:41.287Z,20.20
2017-06-21T03:03:09.563Z,20.10
2017-06-21T03:05:37.866Z,20.10
2017-06-21T03:08:06.210Z,20.00
2017-06-21T03:10:35.640Z,20.00
2017-06-21T03:13:03.952Z,20.00
2017-06-21T03:15:33.077Z,20.00
2017-06-21T03:20:30.882Z,19.90
2017-06-21T03:22:59.207Z,19.90
2017-06-21T03:25:28.255Z,19.90
2017-06-21T03:27:56.540Z,19.80
2017-06-21T03:30:25.635Z,19.80
2017-06-21T03:32:54.303Z,19.70
2017-06-21T03:35:22.623Z,19.70
2017-06-21T03:37:50.959Z,19.70
2017-06-21T03:40:19.230Z,19.70
2017-06-21T03:42:49.016Z,19.70
2017-06-21T03:45:17.471Z,19.70
2017-06-21T03:47:45.746Z,19.60
2017-06-21T03:50:15.530Z,19.60
2017-06-21T03:52:43.863Z,19.60
2017-06-21T03:55:12.143Z,19.50
2017-06-21T03:57:40.419Z,19.40
2017-06-21T04:00:09.411Z,19.40
2017-06-21T04:02:37.699Z,19.40
2017-06-21T04:05:06.016Z,19.40
2017-06-21T04:10:03.923Z,19.30
2017-06-21T04:12:32.211Z,19.30
2017-06-21T04:15:00.535Z,19.30
2017-06-21T04:17:28.819Z,19.30
2017-06-21T04:19:57.098Z,19.30
2017-06-21T04:22:25.702Z,19.30
2017-06-21T04:24:54.746Z,19.30
2017-06-21T04:27:23.050Z,19.30
2017-06-21T04:29:52.316Z,19.30
2017-06-21T04:32:22.128Z,19.30
2017-06-21T04:34:50.410Z,19.30
2017-06-21T04:37:20.898Z,19.30
2017-06-21T04:39:49.943Z,19.30
2017-06-21T04:42:18.219Z,19.30
2017-06-21T04:44:46.562Z,19.40
2017-06-21T04:47:14.835Z,19.40
2017-06-21T04:49:43.115Z,19.40
2017-06-21T04:52:12.255Z,19.30
2017-06-21T04:54:40.536Z,19.30
2017-06-21T04:57:08.816Z,19.30
2017-06-21T04:59:38.330Z,19.30
2017-06-21T05:02:07.409Z,19.30
2017-06-21T05:04:36.499Z,19.30
2017-06-21T05:07:04.867Z,19.30
2017-06-21T05:09:33.178Z,19.30
2017-06-21T05:12:01.462Z,19.30
2017-06-21T05:17:00.069Z,19.40
2017-06-21T05:19:29.851Z,19.30
2017-06-21T05:21:59.558Z,19.40
2017-06-21T05:24:28.235Z,19.40
2017-06-21T05:29:27.187Z,19.50
2017-06-21T05:31:55.859Z,19.60
2017-06-21T05:34:24.139Z,19.60
2017-06-21T05:36:52.548Z,19.60
2017-06-21T05:39:20.823Z,19.60
2017-06-21T05:41:50.238Z,19.70
2017-06-21T05:44:19.195Z,19.60
2017-06-21T05:46:48.607Z,19.60
2017-06-21T05:49:16.890Z,19.70
2017-06-21T05:51:45.219Z,19.80
2017-06-21T05:54:14.258Z,19.80
2017-06-21T05:56:43.302Z,19.90
2017-06-21T05:59:11.631Z,19.90
2017-06-21T06:04:09.807Z,20.10
2017-06-21T06:06:38.477Z,20.20
2017-06-21T06:09:07.539Z,20.30
2017-06-21T06:11:36.618Z,20.40
2017-06-21T06:14:05.103Z,20.40
2017-06-21T06:16:33.811Z,20.50
2017-06-21T06:19:02.090Z,20.60
2017-06-21T06:21:30.700Z,20.60
2017-06-21T06:24:00.115Z,20.70
2017-06-21T06:26:28.394Z,20.90
2017-06-21T06:28:56.722Z,21.00
2017-06-21T06:31:25.007Z,21.20
2017-06-21T06:33:53.306Z,21.40
2017-06-21T06:36:21.657Z,21.60
2017-06-21T06:38:51.072Z,21.80
2017-06-21T06:41:19.346Z,22.00
2017-06-21T06:46:17.950Z,22.60
2017-06-21T06:48:46.243Z,22.80
2017-06-21T06:51:14.574Z,23.10
2017-06-21T06:53:43.627Z,23.40
2017-06-21T06:56:11.943Z,23.60
2017-06-21T06:58:40.304Z,23.90
2017-06-21T07:01:09.726Z,24.20
2017-06-21T07:03:38.788Z,24.40
2017-06-21T07:06:08.287Z,24.60
2017-06-21T07:08:38.123Z,24.90
2017-06-21T07:11:06.430Z,25.10
2017-06-21T07:13:34.775Z,25.30
2017-06-21T07:16:03.487Z,25.50
2017-06-21T07:18:32.921Z,25.70
2017-06-21T07:21:01.298Z,25.90
2017-06-21T07:23:29.556Z,26.00
2017-06-21T07:28:27.774Z,26.50
2017-06-21T07:33:26.325Z,27.00
2017-06-21T07:35:55.119Z,27.10
2017-06-21T07:40:53.656Z,27.20
2017-06-21T07:43:21.982Z,27.20
2017-06-21T07:45:50.266Z,27.30
2017-06-21T07:48:18.553Z,27.40
2017-06-21T07:53:17.078Z,27.50
2017-06-21T07:55:45.358Z,27.60
2017-06-21T07:58:15.191Z,27.80
2017-06-21T08:00:44.599Z,28.00
2017-06-21T08:03:12.890Z,28.30
2017-06-21T08:05:41.643Z,28.60
2017-06-21T08:08:10.340Z,28.60
2017-06-21T08:10:39.067Z,28.60
2017-06-21T08:13:07.852Z,28.60
2017-06-21T08:15:36.141Z,28.70
2017-06-21T08:18:05.195Z,28.80
2017-06-21T08:20:33.960Z,29.10
2017-06-21T08:23:03.413Z,29.20
2017-06-21T08:25:31.688Z,29.20
2017-06-21T08:28:00.787Z,29.40
2017-06-21T08:30:29.831Z,29.50
2017-06-21T08:32:58.118Z,29.50
2017-06-21T08:35:27.215Z,29.60
2017-06-21T08:37:56.255Z,29.70
2017-06-21T08:40:24.935Z,29.80
2017-06-21T08:42:53.256Z,29.70
2017-06-21T08:45:21.534Z,29.80
2017-06-21T08:47:50.943Z,29.90
2017-06-21T08:50:19.295Z,30.00
2017-06-21T08:52:47.977Z,30.00
2017-06-21T08:55:17.019Z,30.10
2017-06-21T08:57:45.351Z,30.10
2017-06-21T09:00:14.396Z,30.10
2017-06-21T09:02:44.199Z,30.20
2017-06-21T09:05:12.657Z,30.30
2017-06-21T09:10:11.287Z,30.50
2017-06-21T09:15:10.095Z,30.70
2017-06-21T09:17:38.418Z,30.70
2017-06-21T09:20:07.096Z,30.70
2017-06-21T09:22:35.419Z,30.70
2017-06-21T09:25:04.155Z,30.60
2017-06-21T09:27:32.908Z,30.40
2017-06-21T09:30:01.192Z,30.50
2017-06-21T09:32:29.474Z,30.50
2017-06-21T09:37:32.675Z,30.60
2017-06-21T09:40:00.958Z,30.70
2017-06-21T09:42:30.065Z,30.70
2017-06-21T09:44:59.103Z,30.90
2017-06-21T09:47:27.395Z,31.10
2017-06-21T09:52:29.479Z,31.30
2017-06-21T09:54:58.163Z,31.30
2017-06-21T09:57:27.571Z,31.20
2017-06-21T09:59:56.315Z,31.20
2017-06-21T10:04:55.000Z,31.40
2017-06-21T10:07:23.289Z,31.40
2017-06-21T10:09:51.582Z,31.60
2017-06-21T10:12:20.706Z,31.80
2017-06-21T10:14:49.765Z,31.90
2017-06-21T10:17:18.435Z,32.00
2017-06-21T10:19:46.755Z,32.10
2017-06-21T10:22:15.035Z,32.30
2017-06-21T10:24:43.319Z,32.40
2017-06-21T10:27:12.043Z,32.40
2017-06-21T10:29:41.094Z,32.40
2017-06-21T10:32:09.775Z,32.40
2017-06-21T10:34:38.538Z,32.40
2017-06-21T10:37:07.608Z,32.50
2017-06-21T10:39:36.677Z,32.50
2017-06-21T10:42:06.660Z,32.60
2017-06-21T10:44:34.957Z,32.70
2017-06-21T10:47:04.023Z,32.80
2017-06-21T10:49:33.203Z,32.90
2017-06-21T10:54:31.028Z,32.90
2017-06-21T10:57:00.816Z,32.90
2017-06-21T10:59:29.499Z,33.00
2017-06-21T11:01:57.779Z,33.10
2017-06-21T11:06:57.299Z,33.20
2017-06-21T11:09:25.579Z,33.30
2017-06-21T11:11:54.666Z,33.40
2017-06-21T11:14:23.355Z,33.40
2017-06-21T11:16:51.652Z,33.70
2017-06-21T11:19:21.685Z,33.70
2017-06-21T11:21:49.978Z,33.80
2017-06-21T11:24:18.255Z,33.80
2017-06-21T11:26:46.964Z,33.70
2017-06-21T11:29:16.004Z,33.60
2017-06-21T11:31:44.281Z,33.60
2017-06-21T11:34:12.607Z,33.60
2017-06-21T11:36:40.887Z,33.70
2017-06-21T11:39:09.171Z,33.80
2017-06-21T11:41:37.911Z,33.80
2017-06-21T11:44:06.599Z,33.90
2017-06-21T11:46:34.895Z,34.00
2017-06-21T11:49:03.861Z,33.90
2017-06-21T11:51:32.934Z,33.90
2017-06-21T11:56:31.925Z,33.90
2017-06-21T11:59:00.983Z,33.90
2017-06-21T12:01:30.067Z,34.00
2017-06-21T12:03:59.317Z,34.00
2017-06-21T12:06:27.616Z,34.10
2017-06-21T12:08:56.686Z,34.10
2017-06-21T12:11:26.184Z,34.10
2017-06-21T12:13:54.523Z,34.10
2017-06-21T12:16:22.812Z,34.00
2017-06-21T12:21:20.666Z,33.80
2017-06-21T12:23:49.731Z,33.80
2017-06-21T12:26:18.223Z,33.80
2017-06-21T12:28:47.275Z,33.80
2017-06-21T12:31:15.555Z,33.80
2017-06-21T12:33:43.950Z,33.80
2017-06-21T12:36:13.007Z,33.90
2017-06-21T12:38:41.288Z,33.90
2017-06-21T12:41:09.608Z,34.00
2017-06-21T12:43:37.924Z,34.10
2017-06-21T12:46:06.222Z,34.20
2017-06-21T12:48:34.659Z,34.00
2017-06-21T12:51:04.833Z,34.00
2017-06-21T12:56:02.873Z,34.10
2017-06-21T12:58:32.690Z,34.20
2017-06-21T13:01:00.963Z,34.30
2017-06-21T13:03:30.071Z,34.20
2017-06-21T13:05:59.122Z,34.20
2017-06-21T13:08:27.404Z,34.20
2017-06-21T13:10:56.504Z,34.10
2017-06-21T13:13:24.802Z,34.20
2017-06-21T13:18:23.628Z,34.30
2017-06-21T13:20:52.671Z,34.40
2017-06-21T13:23:20.956Z,34.40
2017-06-21T13:25:49.308Z,34.40
2017-06-21T13:28:17.578Z,34.40
2017-06-21T13:30:45.857Z,34.20
2017-06-21T13:33:14.471Z,34.30
2017-06-21T13:35:43.950Z,34.50
2017-06-21T13:40:42.551Z,34.50
2017-06-21T13:43:10.831Z,34.60
2017-06-21T13:45:39.140Z,34.60
2017-06-21T13:48:08.272Z,34.60
2017-06-21T13:50:36.579Z,34.70
2017-06-21T13:53:05.643Z,34.60
2017-06-21T13:55:34.395Z,34.40
2017-06-21T13:58:02.831Z,34.30
2017-06-21T14:00:31.106Z,34.10
2017-06-21T14:02:59.611Z,33.90
2017-06-21T14:05:28.658Z,33.80
2017-06-21T14:07:57.334Z,33.70
2017-06-21T14:10:25.667Z,33.50
2017-06-21T14:12:53.951Z,33.40
2017-06-21T14:15:22.271Z,33.30
2017-06-21T14:17:50.606Z,33.20
2017-06-21T14:20:20.027Z,33.10
2017-06-21T14:22:49.817Z,33.00
2017-06-21T14:25:19.015Z,32.70
2017-06-21T14:30:17.182Z,32.50
2017-06-21T14:32:46.275Z,32.30
2017-06-21T14:35:14.551Z,32.10
2017-06-21T14:37:44.476Z,32.00
2017-06-21T14:40:12.799Z,31.80
2017-06-21T14:42:42.584Z,31.50
2017-06-21T14:45:10.870Z,31.30
2017-06-21T14:47:39.442Z,31.10
2017-06-21T14:50:07.747Z,31.10
2017-06-21T14:52:37.219Z,31.00
2017-06-21T14:55:05.575Z,30.90
2017-06-21T14:57:33.880Z,30.80
2017-06-21T15:00:02.175Z,30.80
2017-06-21T15:05:00.282Z,30.70
2017-06-21T15:07:29.698Z,30.70
2017-06-21T15:09:58.803Z,30.80
2017-06-21T15:12:27.091Z,30.70
2017-06-21T15:14:56.138Z,30.70
2017-06-21T15:17:26.106Z,30.60
2017-06-21T15:19:54.779Z,30.50
2017-06-21T15:22:23.119Z,30.50
2017-06-21T15:24:52.596Z,30.50
2017-06-21T15:27:20.874Z,30.50
2017-06-21T15:29:49.554Z,30.40
2017-06-21T15:32:19.354Z,30.30
2017-06-21T15:34:49.143Z,30.20
2017-06-21T15:37:18.191Z,30.10
2017-06-21T15:39:47.659Z,30.20
2017-06-21T15:42:15.938Z,30.20
2017-06-21T15:47:14.250Z,30.20
2017-06-21T15:49:43.662Z,30.20
2017-06-21T15:52:12.707Z,30.20
2017-06-21T15:54:41.034Z,30.20
2017-06-21T15:57:10.081Z,30.20
2017-06-21T15:59:38.400Z,30.10
2017-06-21T16:02:06.759Z,30.20
2017-06-21T16:07:04.649Z,30.20
2017-06-21T16:09:33.613Z,30.30
2017-06-21T16:12:03.065Z,30.30
2017-06-21T16:14:31.371Z,30.30
2017-06-21T16:16:59.751Z,30.30
2017-06-21T16:19:28.026Z,30.30
2017-06-21T16:21:57.447Z,30.30
2017-06-21T16:24:26.279Z,30.40
2017-06-21T16:26:56.064Z,30.40
2017-06-21T16:29:24.366Z,30.40
2017-06-21T16:31:52.703Z,30.40
2017-06-21T16:34:22.147Z,30.50
2017-06-21T16:36:51.985Z,30.50
2017-06-21T16:39:20.430Z,30.40
2017-06-21T16:41:49.847Z,30.40
2017-06-21T16:44:18.122Z,30.40
2017-06-21T16:46:46.441Z,30.40
2017-06-21T16:49:14.714Z,30.40
2017-06-21T16:51:42.990Z,30.40
2017-06-21T16:54:11.323Z,30.40
2017-06-21T16:59:09.138Z,30.40
2017-06-21T17:01:37.476Z,30.40
2017-06-21T17:04:06.191Z,30.40
2017-06-21T17:06:35.643Z,30.40
2017-06-21T17:09:04.013Z,30.40
2017-06-21T17:11:32.303Z,30.40
2017-06-21T17:14:01.383Z,30.40
2017-06-21T17:16:29.702Z,30.30
2017-06-21T17:18:58.746Z,30.30
2017-06-21T17:21:27.790Z,30.30
2017-06-21T17:23:56.255Z,30.30
2017-06-21T17:26:26.051Z,30.20
2017-06-21T17:28:54.341Z,30.20
2017-06-21T17:31:24.195Z,30.20
2017-06-21T17:36:22.434Z,30.20
2017-06-21T17:38:50.759Z,30.20
2017-06-21T17:41:19.810Z,30.10
2017-06-21T17:43:49.227Z,30.10
2017-06-21T17:48:47.485Z,30.10
2017-06-21T17:51:23.038Z,30.10
2017-06-21T17:59:05.229Z,30.00
2017-06-21T18:01:34.322Z,30.00
2017-06-21T18:04:03.811Z,29.90
2017-06-21T18:06:32.949Z,29.90
2017-06-21T18:09:02.955Z,29.90
2017-06-21T18:11:32.094Z,29.90
2017-06-21T18:14:00.831Z,29.90
2017-06-21T18:16:29.123Z,29.90
2017-06-21T18:24:11.056Z,29.80
2017-06-21T18:26:39.363Z,29.80
2017-06-21T18:29:08.465Z,29.80
2017-06-21T18:31:37.617Z,29.80
2017-06-21T18:34:05.963Z,29.70
2017-06-21T18:36:34.272Z,29.60
2017-06-21T18:39:03.425Z,29.50
2017-06-21T18:41:32.513Z,29.50
2017-06-21T18:44:01.554Z,29.40
2017-06-21T18:46:31.764Z,29.30
2017-06-21T18:49:00.137Z,29.20
2017-06-21T18:51:28.422Z,29.20
2017-06-21T18:53:57.381Z,29.10
2017-06-21T18:58:55.976Z,29.10
2017-06-21T19:01:24.331Z,29.00
2017-06-21T19:03:52.623Z,29.00
2017-06-21T19:06:21.157Z,28.90
2017-06-21T19:08:49.871Z,28.80
2017-06-21T19:11:19.282Z,28.80
2017-06-21T19:16:17.887Z,28.70
2017-06-21T19:18:46.162Z,28.60
2017-06-21T19:21:14.844Z,28.60
2017-06-21T19:26:13.714Z,28.50
2017-06-21T19:28:43.506Z,28.50
2017-06-21T19:31:11.831Z,28.40
2017-06-21T19:33:40.119Z,28.40
2017-06-21T19:36:08.423Z,28.30
2017-06-21T19:38:36.795Z,28.30
2017-06-21T19:43:34.663Z,28.20
2017-06-21T19:46:04.901Z,28.10
2017-06-21T19:48:33.209Z,28.10
2017-06-21T19:51:01.491Z,28.00
2017-06-21T19:53:29.819Z,27.90
2017-06-21T19:55:59.607Z,27.90
2017-06-21T19:58:28.651Z,27.80
2017-06-21T20:00:57.022Z,27.70
2017-06-21T20:05:55.205Z,27.60
2017-06-21T20:08:23.526Z,27.50
2017-06-21T20:13:21.315Z,27.40
2017-06-21T20:15:50.021Z,27.30
2017-06-21T20:18:18.300Z,27.20
2017-06-21T20:20:47.719Z,27.10
2017-06-21T20:23:16.144Z,27.00
2017-06-21T20:25:45.183Z,26.90
2017-06-21T20:28:14.602Z,26.90
2017-06-21T20:33:12.474Z,26.80
2017-06-21T20:35:41.145Z,26.70
2017-06-21T20:40:40.534Z,26.60
2017-06-21T20:43:09.954Z,26.50
2017-06-21T20:45:39.184Z,26.40
2017-06-21T20:50:37.007Z,26.30
2017-06-21T20:53:05.521Z,26.30
2017-06-21T20:55:33.852Z,26.20
2017-06-21T20:58:03.382Z,26.10
2017-06-21T21:00:31.726Z,26.10
2017-06-21T21:05:29.911Z,26.00
2017-06-21T21:07:58.534Z,26.00
2017-06-21T21:10:26.810Z,25.90
2017-06-21T21:12:55.091Z,25.90
2017-06-21T21:15:23.436Z,25.80
2017-06-21T21:17:52.879Z,25.80
2017-06-21T21:20:21.165Z,25.70
2017-06-21T21:22:49.583Z,25.60
2017-06-21T21:27:47.367Z,25.60
2017-06-21T21:30:16.862Z,25.50
2017-06-21T21:32:45.155Z,25.50
2017-06-21T21:35:13.454Z,25.40
2017-06-21T21:37:44.294Z,25.40
2017-06-21T21:40:13.360Z,25.40
2017-06-21T21:42:42.411Z,25.30
2017-06-21T21:45:10.739Z,25.20
2017-06-21T21:47:40.519Z,25.20
2017-06-21T21:52:38.773Z,25.20
2017-06-21T21:55:07.085Z,25.10
2017-06-21T21:57:36.908Z,25.10
2017-06-21T22:00:05.663Z,25.00
2017-06-21T22:02:34.391Z,25.00
2017-06-21T22:05:03.458Z,25.00
2017-06-21T22:07:32.594Z,24.90
2017-06-21T22:12:30.794Z,24.80
2017-06-21T22:14:59.128Z,24.80
2017-06-21T22:17:27.415Z,24.70
2017-06-21T22:22:25.250Z,24.70
2017-06-21T22:24:53.932Z,24.60
2017-06-21T22:27:22.240Z,24.60
2017-06-21T22:29:53.909Z,24.60
2017-06-21T22:32:22.960Z,24.50
2017-06-21T22:34:52.391Z,24.50
2017-06-21T22:37:20.718Z,24.40
2017-06-21T22:39:48.998Z,24.40
2017-06-21T22:42:17.279Z,24.30
2017-06-21T22:47:16.323Z,24.30
2017-06-21T22:49:45.371Z,24.20
2017-06-21T22:52:14.461Z,24.20
2017-06-21T22:54:42.742Z,24.10
2017-06-21T22:57:11.047Z,24.10
2017-06-21T22:59:39.447Z,24.00
2017-06-21T23:04:37.363Z,24.00
2017-06-21T23:07:05.721Z,24.00
2017-06-21T23:09:35.520Z,23.90
2017-06-21T23:12:03.822Z,24.00
2017-06-21T23:14:32.143Z,23.90
2017-06-21T23:17:00.451Z,23.90
2017-06-21T23:19:30.234Z,24.00
2017-06-21T23:21:58.623Z,24.00
2017-06-21T23:24:26.899Z,24.00
2017-06-21T23:29:25.490Z,24.10
2017-06-21T23:31:53.811Z,24.10
2017-06-21T23:34:22.500Z,24.10
2017-06-21T23:36:51.236Z,24.10
2017-06-21T23:39:20.646Z,24.00
2017-06-21T23:41:48.928Z,23.90
2017-06-21T23:44:18.754Z,23.90
2017-06-21T23:46:47.030Z,23.80
2017-06-21T23:49:15.311Z,23.80
2017-06-21T23:51:43.635Z,23.70
2017-06-21T23:54:11.910Z,23.70
2017-06-21T23:56:40.206Z,23.70
2017-06-21T23:59:08.565Z,23.70
